createdAt,value
2023-02-15T00:08:44.835Z,983.53
2023-02-15T00:18:45.009Z,983.51
2023-02-15T00:28:45.248Z,983.35
2023-02-15T00:38:45.444Z,983.33
2023-02-15T00:48:45.669Z,983.22
2023-02-15T00:58:45.859Z,983.32
2023-02-15T01:08:46.107Z,983.32
2023-02-15T01:18:46.268Z,983.33
2023-02-15T01:28:46.499Z,983.27
2023-02-15T01:38:46.676Z,983.17
2023-02-15T01:48:46.898Z,983.16
2023-02-15T01:58:47.071Z,983.08
2023-02-15T02:08:47.556Z,983.05
2023-02-15T02:18:47.389Z,982.98
2023-02-15T02:28:47.803Z,982.93
2023-02-15T02:38:47.761Z,982.87
2023-02-15T02:48:48.007Z,982.83
2023-02-15T02:58:48.604Z,982.84
2023-02-15T03:08:48.393Z,982.71
2023-02-15T03:18:48.566Z,982.76
2023-02-15T03:28:48.804Z,982.80
2023-02-15T03:38:48.984Z,982.77
2023-02-15T03:48:49.397Z,982.67
2023-02-15T03:58:49.688Z,982.73
2023-02-15T04:08:49.744Z,982.67
2023-02-15T04:18:49.910Z,982.64
2023-02-15T04:28:49.909Z,982.48
2023-02-15T04:38:50.154Z,982.40
2023-02-15T04:48:50.259Z,982.45
2023-02-15T04:58:50.441Z,982.57
2023-02-15T05:08:50.682Z,982.50
2023-02-15T05:18:50.749Z,982.55
2023-02-15T05:28:50.981Z,982.56
2023-02-15T05:38:51.184Z,982.49
2023-02-15T05:48:51.400Z,982.23
2023-02-15T05:58:51.575Z,982.32
2023-02-15T06:08:51.797Z,982.48
2023-02-15T06:18:53.744Z,982.58
2023-02-15T06:28:52.176Z,982.74
2023-02-15T06:38:52.358Z,982.85
2023-02-15T06:48:52.580Z,982.74
2023-02-15T06:58:52.763Z,982.89
2023-02-15T07:08:52.984Z,982.92
2023-02-15T07:18:53.211Z,982.84
2023-02-15T07:28:53.322Z,982.84
2023-02-15T07:38:53.550Z,982.86
2023-02-15T07:48:53.762Z,982.82
2023-02-15T07:58:53.972Z,982.79
2023-02-15T08:08:54.185Z,982.75
2023-02-15T08:18:54.437Z,982.84
2023-02-15T08:28:55.664Z,982.73
2023-02-15T08:38:54.715Z,982.69
2023-02-15T08:48:54.894Z,982.62
2023-02-15T08:58:55.238Z,982.69
2023-02-15T09:08:55.160Z,982.59
2023-02-15T09:18:55.488Z,982.60
2023-02-15T09:28:55.414Z,982.60
2023-02-15T09:38:55.499Z,982.39
2023-02-15T09:48:55.636Z,982.06
2023-02-15T09:58:55.993Z,982.02
2023-02-15T10:08:56.007Z,982.13
2023-02-15T10:18:56.077Z,981.98
2023-02-15T10:28:56.558Z,981.71
2023-02-15T10:38:56.499Z,981.47
2023-02-15T10:48:56.611Z,981.39
2023-02-15T10:58:56.698Z,981.41
2023-02-15T11:08:56.820Z,981.12
2023-02-15T11:18:57.023Z,981.02
2023-02-15T11:28:57.170Z,980.91
2023-02-15T11:38:57.269Z,980.91
2023-02-15T11:48:57.441Z,980.94
2023-02-15T11:58:57.601Z,980.88
2023-02-15T12:08:57.830Z,980.78
2023-02-15T12:18:58.000Z,980.78
2023-02-15T12:28:58.234Z,980.85
2023-02-15T12:38:59.499Z,980.79
2023-02-15T12:48:58.559Z,980.72
2023-02-15T12:58:58.736Z,980.57
2023-02-15T13:08:58.995Z,980.49
2023-02-15T13:18:59.049Z,980.38
2023-02-15T13:28:59.411Z,980.29
2023-02-15T13:38:59.487Z,980.13
2023-02-15T13:48:59.636Z,980.03
2023-02-15T13:58:59.812Z,980.00
2023-02-15T14:09:00.045Z,979.99
2023-02-15T14:19:00.205Z,979.83
2023-02-15T14:29:00.455Z,979.79
2023-02-15T14:39:00.516Z,979.86
2023-02-15T14:49:00.743Z,979.83
2023-02-15T14:59:00.952Z,979.81
2023-02-15T15:09:01.075Z,979.87
2023-02-15T15:19:01.512Z,979.75
2023-02-15T15:29:01.428Z,979.84
2023-02-15T15:39:01.488Z,979.75
2023-02-15T15:49:01.801Z,979.88
2023-02-15T15:59:01.849Z,979.96
2023-02-15T16:09:02.128Z,979.95
2023-02-15T16:19:02.278Z,979.99
2023-02-15T16:29:02.582Z,980.16
2023-02-15T16:39:02.678Z,980.16
2023-02-15T16:49:02.913Z,980.26
2023-02-15T16:59:03.118Z,980.38
2023-02-15T17:09:03.354Z,980.49
2023-02-15T17:19:03.553Z,980.58
2023-02-15T17:29:04.902Z,980.68
2023-02-15T17:39:03.886Z,980.72
2023-02-15T17:49:04.168Z,980.76
2023-02-15T17:59:04.121Z,980.81
2023-02-15T18:09:04.442Z,980.77
2023-02-15T18:19:04.686Z,980.80
2023-02-15T18:29:04.991Z,980.75
2023-02-15T18:39:08.936Z,980.82
2023-02-15T18:49:05.237Z,980.86
2023-02-15T18:59:05.209Z,980.90
2023-02-15T19:09:05.784Z,981.00
2023-02-15T19:19:07.315Z,980.85
2023-02-15T19:29:05.859Z,980.99
2023-02-15T19:39:06.071Z,980.91
2023-02-15T19:49:06.234Z,980.81
2023-02-15T19:59:06.315Z,980.93
2023-02-15T20:09:06.572Z,980.88
2023-02-15T20:19:06.776Z,980.75
2023-02-15T20:29:06.928Z,980.56
2023-02-15T20:39:07.126Z,980.54
2023-02-15T20:49:07.378Z,980.55
2023-02-15T20:59:07.573Z,980.57
2023-02-15T21:09:07.840Z,980.40
2023-02-15T21:19:07.908Z,980.29
2023-02-15T21:29:08.152Z,980.32
2023-02-15T21:39:08.358Z,980.31
2023-02-15T21:49:08.645Z,980.35
2023-02-15T21:59:08.730Z,980.36
2023-02-15T22:09:08.980Z,980.50
2023-02-15T22:19:09.172Z,980.31
2023-02-15T22:29:09.560Z,980.30
2023-02-15T22:39:09.621Z,980.35
2023-02-15T22:49:09.869Z,980.43
2023-02-15T22:59:10.062Z,980.55
2023-02-15T23:09:10.316Z,980.50
2023-02-15T23:19:10.504Z,980.61
2023-02-15T23:29:10.752Z,980.61
2023-02-15T23:39:10.951Z,980.67
2023-02-15T23:49:11.204Z,980.81
2023-02-15T23:59:11.395Z,980.78
